地図

経路データ

SID SEASON NUMBER BASIN SUBBASIN NAME ISO_TIME NATURE LAT LON WMO_WIND WMO_PRES WMO_AGENCY TRACK_TYPE DIST2LAND LANDFALL IFLAG USA_AGENCY USA_ATCF_ID USA_LAT USA_LON USA_RECORD USA_STATUS USA_WIND USA_PRES USA_SSHS USA_R34_NE USA_R34_SE USA_R34_SW USA_R34_NW USA_R50_NE USA_R50_SE USA_R50_SW USA_R50_NW USA_R64_NE USA_R64_SE USA_R64_SW USA_R64_NW USA_POCI USA_ROCI USA_RMW USA_EYE TOKYO_LAT TOKYO_LON TOKYO_GRADE TOKYO_WIND TOKYO_PRES TOKYO_R50_DIR TOKYO_R50_LONG TOKYO_R50_SHORT TOKYO_R30_DIR TOKYO_R30_LONG TOKYO_R30_SHORT TOKYO_LAND CMA_LAT CMA_LON CMA_CAT CMA_WIND CMA_PRES HKO_LAT HKO_LON HKO_CAT HKO_WIND HKO_PRES NEWDELHI_LAT NEWDELHI_LON NEWDELHI_GRADE NEWDELHI_WIND NEWDELHI_PRES NEWDELHI_CI NEWDELHI_DP NEWDELHI_POCI REUNION_LAT REUNION_LON REUNION_TYPE REUNION_WIND REUNION_PRES REUNION_TNUM REUNION_CI REUNION_RMW REUNION_R34_NE REUNION_R34_SE REUNION_R34_SW REUNION_R34_NW REUNION_R50_NE REUNION_R50_SE REUNION_R50_SW REUNION_R50_NW REUNION_R64_NE REUNION_R64_SE REUNION_R64_SW REUNION_R64_NW BOM_LAT BOM_LON BOM_TYPE BOM_WIND BOM_PRES BOM_TNUM BOM_CI BOM_RMW BOM_R34_NE BOM_R34_SE BOM_R34_SW BOM_R34_NW BOM_R50_NE BOM_R50_SE BOM_R50_SW BOM_R50_NW BOM_R64_NE BOM_R64_SE BOM_R64_SW BOM_R64_NW BOM_ROCI BOM_POCI BOM_EYE BOM_POS_METHOD BOM_PRES_METHOD NADI_LAT NADI_LON NADI_CAT NADI_WIND NADI_PRES WELLINGTON_LAT WELLINGTON_LON WELLINGTON_WIND WELLINGTON_PRES DS824_LAT DS824_LON DS824_STAGE DS824_WIND DS824_PRES TD9636_LAT TD9636_LON TD9636_STAGE TD9636_WIND TD9636_PRES TD9635_LAT TD9635_LON TD9635_WIND TD9635_PRES TD9635_ROCI NEUMANN_LAT NEUMANN_LON NEUMANN_CLASS NEUMANN_WIND NEUMANN_PRES MLC_LAT MLC_LON MLC_CLASS MLC_WIND MLC_PRES USA_GUST BOM_GUST BOM_GUST_PER REUNION_GUST REUNION_GUST_PER USA_SEAHGT USA_SEARAD_NE USA_SEARAD_SE USA_SEARAD_SW USA_SEARAD_NW STORM_SPEED STORM_DIR
1923271N17086 1923 66 NI BB NOT_NAMED 1923-09-28 00:00:00 TS 17.0000 86.0000 main 246 207 _________O____ -1 17.0000 86.0000 TC 30 9 306
1923271N17086 1923 66 NI BB NOT_NAMED 1923-09-28 03:00:00 TS 17.2569 85.6302 main 192 131 _________PO___ -1 17.3853 85.4453 TC 30 17.0000 86.0000 1 11 308
1923271N17086 1923 66 NI BB NOT_NAMED 1923-09-28 06:00:00 TS 17.6612 85.1161 main 123 54 _________OP___ -1 17.8000 84.9000 TC 30 17.4530 85.4402 1 13 311
1923271N17086 1923 66 NI BB NOT_NAMED 1923-09-28 09:00:00 TS 18.1018 84.5985 main 54 0 _________PP___ -1 18.2574 84.3775 TC 30 17.8942 84.8931 1 13 312
1923271N17086 1923 66 NI BB NOT_NAMED 1923-09-28 12:00:00 TS 18.5066 84.1372 main 0 0 _________OP___ -1 18.7000 83.9000 TC 30 18.3132 84.3744 1 12 312
1923271N17086 1923 66 NI BB NOT_NAMED 1923-09-28 15:00:00 TS 18.8824 83.6886 main 0 0 _________PO___ -1 19.0648 83.4772 TC 30 18.7000 83.9000 1 11 312
1923271N17086 1923 66 NI BB NOT_NAMED 1923-09-28 18:00:00 TS 19.2253 83.2902 main 0 0 _________OP___ -1 19.4000 83.1000 TC 30 19.0505 83.4804 1 10 313
1923271N17086 1923 66 NI BB NOT_NAMED 1923-09-28 21:00:00 TS 19.5594 82.9263 main 0 0 _________PP___ -1 19.7348 82.7496 TC 30 19.3841 83.1029 1 10 316
1923271N17086 1923 66 NI BB NOT_NAMED 1923-09-29 00:00:00 TS 19.9128 82.5746 main 0 0 _________OP___ -1 20.1000 82.4000 TC 30 19.7256 82.7491 1 10 318
1923271N17086 1923 66 NI BB NOT_NAMED 1923-09-29 03:00:00 TS 20.3138 82.2000 main 0 0 _________PO___ -1 20.5275 81.9999 TC 30 20.1000 82.4000 1 11 320
1923271N17086 1923 66 NI BB NOT_NAMED 1923-09-29 06:00:00 TS 20.7818 81.7947 main 0 0 _________OP___ -1 21.0000 81.6000 TC 30 20.5636 81.9893 1 12 323
1923271N17086 1923 66 NI BB NOT_NAMED 1923-09-29 09:00:00 TS 21.2902 81.4020 main 0 0 _________PP___ -1 21.5225 81.2201 TC 30 21.0579 81.5839 1 12 325
1923271N17086 1923 66 NI BB NOT_NAMED 1923-09-29 12:00:00 TS 21.7741 81.0557 main 0 0 _________OP___ -1 22.0000 80.9000 TC 30 21.5481 81.2113 1 10 326
1923271N17086 1923 66 NI BB NOT_NAMED 1923-09-29 15:00:00 TS 22.1612 80.7811 main 0 0 _________PO___ -1 22.3224 80.6622 TC 30 22.0000 80.9000 1 8 328
1923271N17086 1923 66 NI BB NOT_NAMED 1923-09-29 18:00:00 TS 22.4859 80.5700 main 0 0 _________OP___ -1 22.6000 80.5000 TC 30 22.3717 80.6400 1 8 332
1923271N17086 1923 66 NI BB NOT_NAMED 1923-09-29 21:00:00 TS 22.8259 80.4060 main 0 0 _________PP___ -1 22.9500 80.3625 TC 30 22.7019 80.4494 1 7 341
1923271N17086 1923 66 NI BB NOT_NAMED 1923-09-30 00:00:00 TS 23.1531 80.3171 main 0 0 _________OP___ -1 23.3000 80.3000 TC 30 23.0062 80.3342 1 6 351
1923271N17086 1923 66 NI BB NOT_NAMED 1923-09-30 03:00:00 TS 23.4537 80.3025 main 0 0 _________PO___ -1 23.6074 80.3050 TC 30 23.3000 80.3000 1 6 3
1923271N17086 1923 66 NI BB NOT_NAMED 1923-09-30 06:00:00 TS 23.7636 80.3605 main 0 0 _________OP___ -1 23.9000 80.4000 TC 30 23.6273 80.3210 1 7 16
1923271N17086 1923 66 NI BB NOT_NAMED 1923-09-30 09:00:00 TS 24.0798 80.4959 main 0 0 _________PP___ -1 24.2150 80.5699 TC 30 23.9447 80.4218 1 7 27
1923271N17086 1923 66 NI BB NOT_NAMED 1923-09-30 12:00:00 TS 24.3699 80.6934 main 0 0 _________OP___ -1 24.5000 80.8000 TC 30 24.2398 80.5868 1 7 36
1923271N17086 1923 66 NI BB NOT_NAMED 1923-09-30 15:00:00 TS 24.6112 80.9176 main 0 0 _________PO___ -1 24.7225 81.0351 TC 30 24.5000 80.8000 1 6 45
1923271N17086 1923 66 NI BB NOT_NAMED 1923-09-30 18:00:00 TS 24.7954 81.1552 main 0 0 _________OP___ -1 24.9000 81.3000 TC 30 24.7169 81.0466 1 6 53
1923271N17086 1923 66 NI BB NOT_NAMED 1923-09-30 21:00:00 TS 24.9609 81.4274 main 0 0 _________PP___ -1 25.0551 81.5923 TC 30 24.8981 81.3174 1 6 58
1923271N17086 1923 66 NI BB NOT_NAMED 1923-10-01 00:00:00 TS 25.1035 81.7030 main 0 0 _________OP___ -1 25.2000 81.9000 TC 30 25.0552 81.6045 1 5 61
1923271N17086 1923 66 NI BB NOT_NAMED 1923-10-01 03:00:00 NR 25.2000 81.9000 main 0 __________O___ -1 TC 25.2000 81.9000 1 4 61

IBTrACS Databaseについて

本データベースは、米国NOAAが公開する1842年以降の世界の熱帯低気圧のベストトラックデータアーカイブInternational Best Track Archive for Climate Stewardship (IBTrACS)を、ウェブで閲覧しやすい形式に変換したものです。

最終更新日:2021-11-26